Time;durP1;ratioP1;P1;durP2;ratioP2;P2;SDS_P1;SDS_P2;PMS_P1;PMS_P2;Temp;Humidity;BMP_temperature;BMP_pressure;BME280_temperature;BME280_humidity;BME280_pressure;Samples;Min_cycle;Max_cycle;Signal;HPM_P1;HPM_P2
2023/11/24 00:00:04;;;;;;;;;;;;;;;20.64;29.28;97332.78;5013096;28;1135;-74
2023/11/24 00:02:38;;;;;;;;;;;;;;;20.88;29.04;97330.38;5016004;28;930;-74
2023/11/24 00:05:06;;;;;;;;;;;;;;;21.31;28.34;97324.00;5000458;28;795;-74
2023/11/24 00:07:32;;;;;;;;;;;;;;;21.26;28.62;97312.47;4984868;28;1907;-74
2023/11/24 00:09:57;;;;;;;;;;;;;;;21.25;28.38;97308.06;4977117;28;996;-74
2023/11/24 00:12:23;;;;;;;;;;;;;;;21.37;28.36;97310.06;4961399;28;1105;-74
2023/11/24 00:14:48;;;;;;;;;;;;;;;21.17;28.04;97313.16;4961581;28;1578;-74
2023/11/24 00:17:14;;;;;;;;;;;;;;;21.27;28.01;97314.81;4977687;28;810;-74
2023/11/24 00:19:39;;;;;;;;;;;;;;;21.10;28.18;97307.00;4993150;28;1005;-74
2023/11/24 00:22:06;;;;;;;;;;;;;;;21.00;28.66;97304.06;4980858;28;725;-74
2023/11/24 00:24:31;;;;;;;;;;;;;;;21.48;28.27;97295.50;4980576;28;807;-74
2023/11/24 00:26:58;;;;;;;;;;;;;;;20.94;28.96;97279.66;4996504;28;1902;-74
2023/11/24 00:29:23;;;;;;;;;;;;;;;21.12;28.77;97288.28;4980874;28;861;-73
2023/11/24 00:31:49;;;;;;;;;;;;;;;21.20;28.18;97275.50;4980057;28;796;-74
2023/11/24 00:34:14;;;;;;;;;;;;;;;20.79;28.73;97283.00;4996826;28;752;-74
2023/11/24 00:36:41;;;;;;;;;;;;;;;20.92;28.79;97280.09;4977011;28;1273;-73
2023/11/24 00:39:07;;;;;;;;;;;;;;;21.00;28.63;97275.00;4976959;28;1416;-74
2023/11/24 00:41:33;;;;;;;;;;;;;;;21.20;28.46;97267.00;4976976;28;1037;-75
2023/11/24 00:44:01;;;;;;;;;;;;;;;21.40;28.28;97263.06;4976863;28;1215;-74
2023/11/24 00:46:27;;;;;;;;;;;;;;;21.12;28.36;97260.00;4993164;28;1903;-74
2023/11/24 00:48:53;;;;;;;;;;;;;;;21.37;28.45;97261.16;4993005;28;1058;-73
2023/11/24 00:51:18;;;;;;;;;;;;;;;20.87;28.68;97265.75;4976744;28;838;-75
2023/11/24 00:53:44;;;;;;;;;;;;;;;20.85;28.73;97256.97;4960785;28;1105;-74
2023/11/24 00:56:09;;;;;;;;;;;;;;;20.98;28.49;97266.16;4976732;28;935;-74
2023/11/24 00:58:35;;;;;;;;;;;;;;;21.24;28.13;97250.69;4960406;28;743;-74
2023/11/24 01:01:04;;;;;;;;;;;;;;;21.21;28.48;97240.28;4976693;28;1251;-73
2023/11/24 01:03:30;;;;;;;;;;;;;;;21.14;28.28;97240.56;4979631;28;1449;-75
2023/11/24 01:05:57;;;;;;;;;;;;;;;21.39;28.15;97233.19;4979431;28;1911;-74
2023/11/24 01:08:23;;;;;;;;;;;;;;;21.47;27.76;97228.84;4980424;28;1156;-74
2023/11/24 01:10:48;;;;;;;;;;;;;;;21.09;28.55;97221.34;4979701;28;916;-74
2023/11/24 01:13:14;;;;;;;;;;;;;;;21.11;28.13;97212.38;4963321;28;1171;-74
2023/11/24 01:15:39;;;;;;;;;;;;;;;20.80;28.66;97199.75;4979779;28;945;-74
2023/11/24 01:18:06;;;;;;;;;;;;;;;20.89;28.63;97201.88;4979678;28;1073;-73
2023/11/24 01:20:35;;;;;;;;;;;;;;;20.94;28.65;97192.00;4963598;28;1151;-73
2023/11/24 01:23:01;;;;;;;;;;;;;;;21.27;28.26;97195.19;4979492;28;1094;-74
2023/11/24 01:25:27;;;;;;;;;;;;;;;21.26;27.94;97191.59;4965796;28;1988;-74
2023/11/24 01:27:53;;;;;;;;;;;;;;;21.21;28.07;97189.34;4982581;28;1266;-73
2023/11/24 01:30:18;;;;;;;;;;;;;;;21.10;28.30;97177.66;4998663;28;1042;-74
2023/11/24 01:32:44;;;;;;;;;;;;;;;20.99;28.12;97171.63;4998673;28;1109;-73
2023/11/24 01:35:09;;;;;;;;;;;;;;;20.95;28.33;97176.59;4995393;28;836;-74
2023/11/24 01:37:35;;;;;;;;;;;;;;;21.22;27.93;97173.94;4995521;28;921;-74
2023/11/24 01:40:03;;;;;;;;;;;;;;;21.14;28.27;97172.66;4995391;28;787;-74
2023/11/24 01:42:28;;;;;;;;;;;;;;;21.43;27.65;97160.25;4974097;28;1307;-74
2023/11/24 01:44:54;;;;;;;;;;;;;;;21.44;27.68;97154.13;4940342;28;995;-74
2023/11/24 01:47:21;;;;;;;;;;;;;;;20.74;28.54;97149.91;4940423;29;1907;-74
2023/11/24 01:49:47;;;;;;;;;;;;;;;20.90;28.12;97143.28;4975043;28;1270;-74
2023/11/24 01:52:13;;;;;;;;;;;;;;;20.94;28.38;97149.59;4978810;28;1120;-74
2023/11/24 01:54:39;;;;;;;;;;;;;;;21.13;28.21;97145.59;4995362;28;708;-73
2023/11/24 01:57:05;;;;;;;;;;;;;;;21.33;28.06;97139.63;4994932;28;712;-74
2023/11/24 01:59:32;;;;;;;;;;;;;;;21.50;27.86;97143.00;4978995;28;1266;-74
2023/11/24 02:01:57;;;;;;;;;;;;;;;20.96;28.29;97145.03;4978722;28;1245;-75
2023/11/24 02:04:23;;;;;;;;;;;;;;;21.20;28.03;97131.19;4978639;28;1057;-75
2023/11/24 02:06:49;;;;;;;;;;;;;;;21.12;28.07;97112.91;4994931;28;1906;-74
2023/11/24 02:09:14;;;;;;;;;;;;;;;20.94;28.50;97113.63;4995225;28;719;-74
2023/11/24 02:11:40;;;;;;;;;;;;;;;21.22;28.06;97117.38;4981344;28;1241;-74
2023/11/24 02:14:05;;;;;;;;;;;;;;;21.37;27.92;97102.69;4997844;28;1454;-74
2023/11/24 02:16:31;;;;;;;;;;;;;;;21.29;27.82;97094.44;4981709;28;1294;-75
2023/11/24 02:18:57;;;;;;;;;;;;;;;21.36;27.87;97092.63;4974985;28;1342;-74
2023/11/24 02:21:23;;;;;;;;;;;;;;;21.24;27.88;97092.25;4943006;28;1237;-74
2023/11/24 02:23:49;;;;;;;;;;;;;;;20.92;28.21;97087.03;4942749;28;1058;-74
2023/11/24 02:26:15;;;;;;;;;;;;;;;21.08;28.23;97089.63;4975174;28;1903;-74
2023/11/24 02:28:41;;;;;;;;;;;;;;;21.20;27.90;97077.44;4975459;28;882;-74
2023/11/24 02:31:07;;;;;;;;;;;;;;;21.12;28.45;97066.88;4942973;28;1167;-74
2023/11/24 02:33:36;;;;;;;;;;;;;;;21.23;27.80;97079.34;4958965;28;1243;-74
2023/11/24 02:36:05;;;;;;;;;;;;;;;20.95;28.23;97060.66;4943638;28;1257;-73
2023/11/24 02:38:32;;;;;;;;;;;;;;;20.69;28.65;97049.53;4943205;28;1400;-75
2023/11/24 02:40:58;;;;;;;;;;;;;;;21.27;28.04;97050.91;4943047;28;1137;-75
2023/11/24 02:43:24;;;;;;;;;;;;;;;21.19;28.21;97050.41;4942764;28;826;-74
2023/11/24 02:45:50;;;;;;;;;;;;;;;21.39;27.93;97063.38;4942539;28;1902;-73
2023/11/24 02:48:16;;;;;;;;;;;;;;;21.33;27.99;97049.84;4994304;28;767;-74
2023/11/24 02:50:42;;;;;;;;;;;;;;;21.04;28.27;97055.84;4977859;28;866;-74
2023/11/24 02:53:08;;;;;;;;;;;;;;;21.16;27.99;97050.56;4977862;28;1078;-74
2023/11/24 02:55:33;;;;;;;;;;;;;;;20.81;28.38;97037.34;4965098;28;880;-75
2023/11/24 02:58:00;;;;;;;;;;;;;;;20.99;28.56;97041.53;5031241;28;864;-73
2023/11/24 03:00:26;;;;;;;;;;;;;;;21.25;28.30;97042.91;5014968;28;712;-74
2023/11/24 03:02:52;;;;;;;;;;;;;;;21.28;28.10;97036.28;5014947;28;1127;-74
2023/11/24 03:05:17;;;;;;;;;;;;;;;21.35;28.26;97034.44;5016076;28;1049;-74
2023/11/24 03:07:43;;;;;;;;;;;;;;;21.05;28.10;97034.78;5001761;28;1910;-74
2023/11/24 03:10:09;;;;;;;;;;;;;;;21.06;28.36;97029.91;5017991;28;1123;-74
2023/11/24 03:12:34;;;;;;;;;;;;;;;21.14;27.97;97019.09;5016854;28;957;-74
2023/11/24 03:15:00;;;;;;;;;;;;;;;21.08;28.29;97016.09;5035150;28;1054;-73
2023/11/24 03:17:25;;;;;;;;;;;;;;;21.02;28.31;97007.44;5035653;28;869;-74
2023/11/24 03:19:51;;;;;;;;;;;;;;;21.10;28.32;97010.78;5013372;28;1045;-74
2023/11/24 03:22:18;;;;;;;;;;;;;;;21.03;28.21;97008.22;4997433;28;1100;-75
2023/11/24 03:24:44;;;;;;;;;;;;;;;21.07;28.33;96997.56;4996870;28;789;-74
2023/11/24 03:27:09;;;;;;;;;;;;;;;21.08;27.99;96993.47;4980622;28;1914;-73
2023/11/24 03:29:36;;;;;;;;;;;;;;;21.12;27.93;96985.63;4997066;28;1230;-74
2023/11/24 03:32:02;;;;;;;;;;;;;;;21.10;27.98;96993.81;4980806;28;1147;-74
2023/11/24 03:34:28;;;;;;;;;;;;;;;21.04;28.21;96987.19;4996993;28;1451;-74
2023/11/24 03:36:53;;;;;;;;;;;;;;;21.29;28.05;96986.94;4977374;28;974;-74
2023/11/24 03:39:21;;;;;;;;;;;;;;;21.24;27.89;96978.28;4961945;28;1187;-75
2023/11/24 03:41:47;;;;;;;;;;;;;;;21.23;27.63;96969.00;4946214;28;910;-74
2023/11/24 03:44:13;;;;;;;;;;;;;;;21.19;27.58;96976.88;4978190;28;854;-74
2023/11/24 03:46:39;;;;;;;;;;;;;;;20.87;27.98;96971.69;4961903;28;1979;-73
2023/11/24 03:49:04;;;;;;;;;;;;;;;20.74;28.21;96975.44;4946142;28;1051;-74
2023/11/24 03:51:30;;;;;;;;;;;;;;;21.18;28.22;96972.44;4996017;28;1232;-74
2023/11/24 03:53:55;;;;;;;;;;;;;;;21.37;27.80;96961.22;5000760;28;1375;-74
2023/11/24 03:56:21;;;;;;;;;;;;;;;21.38;27.75;96965.59;5000607;28;1305;-75
2023/11/24 03:58:46;;;;;;;;;;;;;;;21.27;27.74;96963.97;5016907;28;720;-74
2023/11/24 04:01:13;;;;;;;;;;;;;;;21.18;27.99;96961.13;4997111;28;1087;-74
2023/11/24 04:03:38;;;;;;;;;;;;;;;21.19;27.78;96961.91;4981027;28;1071;-74
2023/11/24 04:06:04;;;;;;;;;;;;;;;20.79;28.16;96952.22;4997157;28;1977;-74
2023/11/24 04:08:29;;;;;;;;;;;;;;;21.12;27.81;96954.50;5011986;28;1127;-74
2023/11/24 04:10:55;;;;;;;;;;;;;;;21.00;28.14;96946.94;4984196;28;1129;-74
2023/11/24 04:13:20;;;;;;;;;;;;;;;21.22;27.91;96946.84;5016673;28;1284;-74
2023/11/24 04:15:47;;;;;;;;;;;;;;;21.38;27.47;96942.97;5016442;28;1177;-74
2023/11/24 04:18:13;;;;;;;;;;;;;;;21.22;27.89;96936.31;5016671;28;1100;-74
2023/11/24 04:20:38;;;;;;;;;;;;;;;21.04;27.87;96941.94;5016463;28;1027;-74
2023/11/24 04:23:04;;;;;;;;;;;;;;;20.99;27.92;96939.72;4987537;28;921;-74
2023/11/24 04:25:30;;;;;;;;;;;;;;;21.12;28.02;96934.72;4977096;28;1996;-74
2023/11/24 04:27:55;;;;;;;;;;;;;;;21.15;28.05;96925.31;4977540;28;784;-73
2023/11/24 04:30:21;;;;;;;;;;;;;;;21.31;27.73;96925.03;4977310;28;834;-73
2023/11/24 04:32:46;;;;;;;;;;;;;;;21.25;28.08;96912.75;4976944;28;795;-75
2023/11/24 04:35:12;;;;;;;;;;;;;;;20.95;28.26;96924.94;4976988;28;1427;-73
2023/11/24 04:37:37;;;;;;;;;;;;;;;20.99;27.87;96911.44;4937954;29;1466;-75
2023/11/24 04:40:03;;;;;;;;;;;;;;;21.06;27.78;96911.91;4938684;29;1543;-73
2023/11/24 04:42:29;;;;;;;;;;;;;;;21.20;27.69;96902.06;4937906;29;1399;-73
2023/11/24 04:44:55;;;;;;;;;;;;;;;21.31;27.93;96905.25;4938248;29;1475;-75
2023/11/24 04:47:21;;;;;;;;;;;;;;;21.39;27.98;96904.94;4962513;28;1991;-75
2023/11/24 04:49:46;;;;;;;;;;;;;;;21.11;27.98;96890.72;4973309;28;1418;-74
2023/11/24 04:52:13;;;;;;;;;;;;;;;21.23;27.77;96881.28;4972023;28;1403;-74
2023/11/24 04:54:38;;;;;;;;;;;;;;;21.00;28.06;96884.72;4976362;28;1591;-73
2023/11/24 04:57:05;;;;;;;;;;;;;;;21.20;28.14;96893.56;4976575;28;1596;-74
2023/11/24 04:59:31;;;;;;;;;;;;;;;21.32;27.89;96889.06;4960296;28;1526;-74
2023/11/24 05:01:57;;;;;;;;;;;;;;;21.13;28.27;96885.38;4976531;28;1421;-74
2023/11/24 05:04:22;;;;;;;;;;;;;;;21.46;27.79;96887.66;4960163;28;1403;-73
2023/11/24 05:06:48;;;;;;;;;;;;;;;21.38;27.93;96886.38;4976604;28;1988;-74
2023/11/24 05:09:14;;;;;;;;;;;;;;;21.50;27.87;96888.25;4976380;28;1512;-74
2023/11/24 05:11:39;;;;;;;;;;;;;;;20.98;28.60;96875.91;4976569;28;1481;-74
2023/11/24 05:14:06;;;;;;;;;;;;;;;21.19;28.12;96879.88;4943345;28;1575;-74
2023/11/24 05:16:32;;;;;;;;;;;;;;;20.97;28.57;96869.47;4990167;28;1354;-74
2023/11/24 05:18:57;;;;;;;;;;;;;;;21.11;28.52;96870.91;4976591;28;1501;-74
2023/11/24 05:21:23;;;;;;;;;;;;;;;21.28;28.28;96869.34;4990190;28;1477;-74
2023/11/24 05:23:48;;;;;;;;;;;;;;;21.44;27.76;96864.69;4995499;28;1468;-75
2023/11/24 05:26:14;;;;;;;;;;;;;;;21.09;28.12;96870.63;4995571;28;1906;-74
2023/11/24 05:28:39;;;;;;;;;;;;;;;20.73;28.79;96866.44;4995281;28;1545;-75
2023/11/24 05:31:05;;;;;;;;;;;;;;;20.80;28.83;96854.81;4995732;28;1410;-74
2023/11/24 05:33:32;;;;;;;;;;;;;;;21.00;28.77;96857.22;4962428;28;1587;-75
2023/11/24 05:35:58;;;;;;;;;;;;;;;21.35;28.26;96853.34;4963025;28;1536;-74
2023/11/24 05:38:24;;;;;;;;;;;;;;;21.29;27.91;96859.59;4995509;28;1584;-74
2023/11/24 05:40:49;;;;;;;;;;;;;;;21.18;28.00;96853.63;4992418;28;1525;-74
2023/11/24 05:43:15;;;;;;;;;;;;;;;20.96;28.24;96838.84;4962746;28;1515;-75
2023/11/24 05:45:41;;;;;;;;;;;;;;;20.70;28.71;96844.75;4985283;28;1987;-74
2023/11/24 05:48:06;;;;;;;;;;;;;;;21.24;28.04;96853.78;5016558;28;1638;-74
2023/11/24 05:50:32;;;;;;;;;;;;;;;21.47;27.58;96850.38;5021530;28;1365;-74
2023/11/24 05:52:57;;;;;;;;;;;;;;;21.28;28.14;96849.56;5021181;28;1519;-74
2023/11/24 05:55:23;;;;;;;;;;;;;;;21.25;28.38;96847.69;5019114;28;1499;-74
2023/11/24 05:57:49;;;;;;;;;;;;;;;21.14;27.94;96847.38;5019468;28;1569;-74
2023/11/24 06:00:18;;;;;;;;;;;;;;;21.28;27.68;96849.56;5035332;28;1504;-73
2023/11/24 06:02:43;;;;;;;;;;;;;;;20.88;28.13;96848.88;5019534;28;1432;-74
2023/11/24 06:05:09;;;;;;;;;;;;;;;20.92;28.28;96844.63;5036290;28;2190;-74
2023/11/24 06:07:34;;;;;;;;;;;;;;;21.14;28.44;96844.53;5018938;28;1988;-74
2023/11/24 06:10:00;;;;;;;;;;;;;;;21.30;28.05;96847.09;5018873;28;1629;-74
2023/11/24 06:12:25;;;;;;;;;;;;;;;21.23;28.03;96846.56;5019033;28;1529;-73
2023/11/24 06:14:51;;;;;;;;;;;;;;;20.99;28.21;96843.56;5018617;28;1530;-74
2023/11/24 06:17:16;;;;;;;;;;;;;;;20.86;28.51;96845.72;5007203;28;1354;-74
2023/11/24 06:19:42;;;;;;;;;;;;;;;21.11;28.29;96845.47;5018574;28;1302;-75
2023/11/24 06:22:07;;;;;;;;;;;;;;;21.16;28.06;96844.84;5036464;28;1539;-74
2023/11/24 06:24:33;;;;;;;;;;;;;;;21.16;28.20;96847.66;5002090;28;1350;-74
2023/11/24 06:26:58;;;;;;;;;;;;;;;21.31;28.13;96831.69;5018433;28;1898;-74
2023/11/24 06:29:24;;;;;;;;;;;;;;;21.02;28.48;96825.66;5036248;28;1481;-73
2023/11/24 06:31:50;;;;;;;;;;;;;;;21.04;28.04;96823.16;5035586;28;1504;-74
2023/11/24 06:34:17;;;;;;;;;;;;;;;21.14;27.77;96821.09;5002670;28;1543;-74
2023/11/24 06:36:42;;;;;;;;;;;;;;;20.94;28.08;96824.41;4998742;28;1564;-75
2023/11/24 06:39:10;;;;;;;;;;;;;;;20.67;28.83;96823.06;5013408;28;1390;-74
2023/11/24 06:41:36;;;;;;;;;;;;;;;21.10;28.43;96828.97;5002421;28;1402;-74
2023/11/24 06:44:02;;;;;;;;;;;;;;;21.19;28.18;96829.78;5018507;28;1385;-74
2023/11/24 06:46:27;;;;;;;;;;;;;;;20.97;28.62;96820.63;4997061;28;1976;-74
2023/11/24 06:48:53;;;;;;;;;;;;;;;21.07;28.04;96816.53;5013773;28;1400;-74
2023/11/24 06:51:19;;;;;;;;;;;;;;;21.24;27.98;96817.00;4979827;28;1414;-75
2023/11/24 06:53:45;;;;;;;;;;;;;;;20.97;28.21;96812.13;4997530;28;1546;-73
2023/11/24 06:56:11;;;;;;;;;;;;;;;21.14;28.16;96804.94;4980668;28;1602;-74
2023/11/24 06:58:36;;;;;;;;;;;;;;;21.09;28.42;96805.56;4981751;28;1526;-74
2023/11/24 07:01:04;;;;;;;;;;;;;;;21.41;27.71;96800.56;4997189;28;1437;-73
2023/11/24 07:03:30;;;;;;;;;;;;;;;21.30;27.88;96796.16;4966101;28;1586;-74
2023/11/24 07:05:56;;;;;;;;;;;;;;;21.12;28.16;96801.78;4979886;28;1903;-74
2023/11/24 07:08:21;;;;;;;;;;;;;;;21.07;27.97;96810.88;4993449;28;1510;-75
2023/11/24 07:10:47;;;;;;;;;;;;;;;20.91;28.31;96802.69;4977397;28;1529;-73
2023/11/24 07:13:12;;;;;;;;;;;;;;;20.80;28.30;96801.13;4961488;28;1516;-74
2023/11/24 07:15:38;;;;;;;;;;;;;;;20.98;28.56;96796.72;4993552;28;1549;-74
2023/11/24 07:18:04;;;;;;;;;;;;;;;21.25;28.02;96788.28;4993473;28;1584;-74
2023/11/24 07:20:29;;;;;;;;;;;;;;;20.95;28.09;96792.81;4955281;28;1528;-74
2023/11/24 07:22:55;;;;;;;;;;;;;;;21.08;27.95;96801.13;4954749;28;1599;-74
2023/11/24 07:25:21;;;;;;;;;;;;;;;21.03;28.28;96798.94;4955017;28;1413;-75
2023/11/24 07:27:47;;;;;;;;;;;;;;;20.91;28.70;96797.03;4938988;29;1910;-74
2023/11/24 07:30:13;;;;;;;;;;;;;;;21.38;28.01;96798.66;4938730;29;1591;-74
2023/11/24 07:32:39;;;;;;;;;;;;;;;21.35;27.93;96791.09;4919921;29;1548;-73
2023/11/24 07:35:04;;;;;;;;;;;;;;;21.53;27.88;96780.56;4916475;29;1387;-74
2023/11/24 07:37:30;;;;;;;;;;;;;;;21.64;27.34;96782.91;4929735;29;1364;-74
2023/11/24 07:39:56;;;;;;;;;;;;;;;21.29;27.98;96780.38;4935447;29;1560;-74
2023/11/24 07:42:22;;;;;;;;;;;;;;;20.96;28.04;96779.47;4935514;29;1592;-74
2023/11/24 07:44:48;;;;;;;;;;;;;;;21.05;28.20;96773.81;4919901;29;1595;-75
2023/11/24 07:47:18;;;;;;;;;;;;;;;21.19;28.27;96761.88;4935235;29;1981;-74
2023/11/24 07:49:44;;;;;;;;;;;;;;;21.49;27.84;96756.50;4935426;29;1327;-74
2023/11/24 07:52:11;;;;;;;;;;;;;;;21.21;28.54;96753.69;4969596;28;1402;-75
2023/11/24 07:54:37;;;;;;;;;;;;;;;21.36;28.18;96770.06;4958114;28;1508;-74
2023/11/24 07:57:03;;;;;;;;;;;;;;;21.38;28.06;96773.97;4973779;28;1563;-74
2023/11/24 07:59:30;;;;;;;;;;;;;;;21.06;28.39;96779.00;4973941;28;1470;-74
2023/11/24 08:01:56;;;;;;;;;;;;;;;20.93;28.75;96784.00;4973701;28;1613;-73
2023/11/24 08:04:22;;;;;;;;;;;;;;;20.88;28.70;96787.47;4988795;28;1362;-75
2023/11/24 08:06:49;;;;;;;;;;;;;;;20.93;28.58;96780.38;4996442;28;1910;-74
2023/11/24 08:09:16;;;;;;;;;;;;;;;20.98;28.97;96771.28;4996561;28;1342;-74
2023/11/24 08:11:42;;;;;;;;;;;;;;;21.23;28.82;96764.53;4996662;28;1680;-73
2023/11/24 08:14:09;;;;;;;;;;;;;;;21.28;28.65;96770.34;5012595;28;1487;-74
2023/11/24 08:16:35;;;;;;;;;;;;;;;21.24;28.30;96775.41;5012274;28;1543;-74
2023/11/24 08:19:02;;;;;;;;;;;;;;;21.16;28.33;96779.78;4980486;28;1386;-75
2023/11/24 08:21:29;;;;;;;;;;;;;;;20.95;28.77;96769.41;4996177;28;1634;-74
2023/11/24 08:23:55;;;;;;;;;;;;;;;20.83;29.03;96773.97;4983466;28;1635;-73
2023/11/24 08:26:23;;;;;;;;;;;;;;;21.19;28.61;96761.88;5016367;28;1910;-74
2023/11/24 08:28:49;;;;;;;;;;;;;;;21.21;28.44;96761.41;5000537;28;1617;-75
2023/11/24 08:31:18;;;;;;;;;;;;;;;21.29;28.41;96760.59;5033901;28;1400;-75
2023/11/24 08:33:43;;;;;;;;;;;;;;;21.24;28.36;96749.94;5033689;28;1443;-74
2023/11/24 08:36:09;;;;;;;;;;;;;;;21.04;28.45;96741.13;5017724;28;1557;-74
2023/11/24 08:38:35;;;;;;;;;;;;;;;20.97;28.63;96730.13;5000999;28;1366;-74
2023/11/24 08:41:01;;;;;;;;;;;;;;;20.99;28.75;96730.47;5033663;28;1569;-74
2023/11/24 08:43:26;;;;;;;;;;;;;;;21.37;28.24;96726.34;5018472;28;1597;-74
2023/11/24 08:45:52;;;;;;;;;;;;;;;21.12;28.50;96728.22;5017296;28;1977;-74
2023/11/24 08:48:17;;;;;;;;;;;;;;;21.33;28.54;96701.81;5016976;28;1561;-73
2023/11/24 08:50:43;;;;;;;;;;;;;;;21.16;28.27;96706.25;5001173;28;1425;-74
2023/11/24 08:53:09;;;;;;;;;;;;;;;21.19;28.14;96705.31;5017083;28;1524;-74
2023/11/24 08:55:34;;;;;;;;;;;;;;;20.94;28.52;96705.63;5000522;28;1434;-75
2023/11/24 08:58:00;;;;;;;;;;;;;;;20.88;28.77;96696.19;5017436;28;1492;-74
2023/11/24 09:00:27;;;;;;;;;;;;;;;21.24;28.66;96684.88;5000398;28;1515;-74
2023/11/24 09:02:53;;;;;;;;;;;;;;;21.42;28.36;96675.56;5033159;28;1510;-74
2023/11/24 09:05:18;;;;;;;;;;;;;;;21.41;28.12;96671.19;5019669;28;1699;-74
2023/11/24 09:07:44;;;;;;;;;;;;;;;21.27;28.44;96672.59;5020108;28;1911;-74
2023/11/24 09:10:10;;;;;;;;;;;;;;;21.28;28.23;96679.81;5020096;28;1381;-74
2023/11/24 09:12:35;;;;;;;;;;;;;;;21.17;28.61;96673.84;5037557;28;1447;-74
2023/11/24 09:15:05;;;;;;;;;;;;;;;20.90;28.97;96665.41;5020074;28;1489;-73
2023/11/24 09:17:32;;;;;;;;;;;;;;;21.29;28.46;96664.41;5027652;28;1383;-74
2023/11/24 09:19:57;;;;;;;;;;;;;;;21.20;28.66;96661.59;5037586;28;1397;-74
2023/11/24 09:22:23;;;;;;;;;;;;;;;21.23;28.32;96660.63;5037311;28;1447;-75
2023/11/24 09:24:49;;;;;;;;;;;;;;;21.46;28.26;96647.09;5018811;28;1378;-74
2023/11/24 09:27:16;;;;;;;;;;;;;;;21.40;28.16;96643.34;5036107;28;1902;-74
2023/11/24 09:29:42;;;;;;;;;;;;;;;21.27;28.35;96644.28;5036237;28;1432;-75
2023/11/24 09:32:07;;;;;;;;;;;;;;;21.11;28.35;96636.16;5003010;28;1353;-74
2023/11/24 09:34:35;;;;;;;;;;;;;;;20.64;29.66;96628.22;5035763;28;1520;-73
2023/11/24 09:37:02;;;;;;;;;;;;;;;21.23;28.66;96626.69;5003470;28;1449;-73
2023/11/24 09:39:28;;;;;;;;;;;;;;;21.45;28.26;96620.84;5019172;28;1432;-74
2023/11/24 09:41:54;;;;;;;;;;;;;;;21.39;28.22;96621.97;5000468;28;1382;-74
2023/11/24 09:44:20;;;;;;;;;;;;;;;21.22;28.47;96613.03;5018425;28;1488;-73
2023/11/24 09:46:46;;;;;;;;;;;;;;;21.26;28.29;96608.00;5019272;28;1963;-74
2023/11/24 09:49:11;;;;;;;;;;;;;;;21.00;28.66;96601.94;5036040;28;1604;-74
2023/11/24 09:51:38;;;;;;;;;;;;;;;21.10;28.52;96603.50;5018744;28;1554;-74
2023/11/24 09:54:05;;;;;;;;;;;;;;;21.06;28.67;96595.16;5034987;28;1516;-75
2023/11/24 09:56:31;;;;;;;;;;;;;;;20.83;29.57;96586.56;5035903;28;1376;-74
2023/11/24 09:58:57;;;;;;;;;;;;;;;21.45;28.15;96586.09;5018704;28;1592;-74
2023/11/24 10:01:22;;;;;;;;;;;;;;;21.24;28.50;96583.03;5037003;28;1388;-75
2023/11/24 10:03:51;;;;;;;;;;;;;;;21.13;28.84;96582.72;5018690;28;1365;-74
2023/11/24 10:06:17;;;;;;;;;;;;;;;21.21;28.31;96575.47;5002284;28;1899;-73
2023/11/24 10:08:43;;;;;;;;;;;;;;;21.09;28.57;96570.81;4999500;28;1641;-73
2023/11/24 10:11:16;;;;;;;;;;;;;;;21.10;29.16;96563.91;5002286;28;1362;-74
2023/11/24 10:13:41;;;;;;;;;;;;;;;21.29;28.91;96562.53;4997577;28;1528;-74
2023/11/24 10:16:08;;;;;;;;;;;;;;;21.46;28.57;96559.38;5014282;28;1528;-74
2023/11/24 10:18:33;;;;;;;;;;;;;;;21.51;28.23;96558.72;4997756;28;1477;-74
2023/11/24 10:20:59;;;;;;;;;;;;;;;20.98;28.96;96554.31;4996289;28;1425;-75
2023/11/24 10:23:29;;;;;;;;;;;;;;;20.81;29.14;96555.94;4981839;28;1600;-74
2023/11/24 10:25:56;;;;;;;;;;;;;;;20.91;28.96;96557.50;4997467;28;1914;-74
2023/11/24 10:28:21;;;;;;;;;;;;;;;20.89;29.29;96547.94;4997527;28;1410;-74
2023/11/24 10:30:47;;;;;;;;;;;;;;;21.26;28.85;96545.75;4992906;28;1662;-75
2023/11/24 10:33:17;;;;;;;;;;;;;;;21.42;28.53;96536.13;4997373;28;1629;-74
2023/11/24 10:35:45;;;;;;;;;;;;;;;21.26;28.59;96526.75;4998727;28;1402;-73
2023/11/24 10:38:10;;;;;;;;;;;;;;;21.29;28.61;96522.94;4997438;28;1496;-74
2023/11/24 10:40:38;;;;;;;;;;;;;;;21.30;28.54;96527.38;4997364;28;1295;-74
2023/11/24 10:43:03;;;;;;;;;;;;;;;21.27;28.39;96524.69;5014016;28;1585;-74
2023/11/24 10:45:30;;;;;;;;;;;;;;;21.16;28.56;96513.91;4996952;28;1473;-75
2023/11/24 10:48:02;;;;;;;;;;;;;;;21.01;29.26;96515.84;4997316;28;1995;-74
2023/11/24 10:50:27;;;;;;;;;;;;;;;21.38;28.81;96507.22;5017481;28;1553;-74
2023/11/24 10:53:00;;;;;;;;;;;;;;;21.54;28.52;96509.66;5017923;28;1453;-74
2023/11/24 10:55:26;;;;;;;;;;;;;;;21.55;28.15;96511.22;4996931;28;1385;-74
2023/11/24 10:57:52;;;;;;;;;;;;;;;21.43;28.56;96506.56;4997376;28;1523;-74
2023/11/24 11:00:20;;;;;;;;;;;;;;;21.16;28.66;96510.28;5013430;28;1468;-74
2023/11/24 11:02:46;;;;;;;;;;;;;;;21.27;28.41;96508.50;5014028;28;1484;-75
2023/11/24 11:05:33;;;;;;;;;;;;;;;21.31;28.69;96492.16;5013230;28;1473;-74
2023/11/24 11:08:03;;;;;;;;;;;;;;;21.27;28.65;96500.00;5012938;28;1914;-74
2023/11/24 11:10:31;;;;;;;;;;;;;;;21.17;28.95;96498.50;4997120;28;1333;-74
2023/11/24 11:12:57;;;;;;;;;;;;;;;21.17;28.81;96484.34;5013696;28;1541;-74
2023/11/24 11:15:24;;;;;;;;;;;;;;;21.26;28.86;96486.34;4993384;28;1860;-75
2023/11/24 11:18:10;;;;;;;;;;;;;;;21.26;28.51;96473.00;4977495;28;1611;-74
2023/11/24 11:20:40;;;;;;;;;;;;;;;21.17;28.95;96473.03;4993533;28;1553;-74
2023/11/24 11:23:06;;;;;;;;;;;;;;;21.39;29.01;96480.50;4993125;28;1333;-74
2023/11/24 11:25:32;;;;;;;;;;;;;;;21.11;29.18;96474.94;4976903;28;1550;-74
2023/11/24 11:28:16;;;;;;;;;;;;;;;21.21;29.06;96473.66;4961011;28;1915;-74
2023/11/24 11:30:44;;;;;;;;;;;;;;;21.04;29.25;96470.44;4993424;28;1467;-74
2023/11/24 11:33:15;;;;;;;;;;;;;;;21.37;28.60;96466.06;4954448;28;1551;-74
2023/11/24 11:35:46;;;;;;;;;;;;;;;21.00;29.13;96469.03;4955478;28;1489;-74
2023/11/24 11:38:13;;;;;;;;;;;;;;;21.27;29.13;96463.25;4954261;29;1548;-74
2023/11/24 11:40:45;;;;;;;;;;;;;;;21.45;28.89;96455.94;4954735;28;1374;-74
2023/11/24 11:43:13;;;;;;;;;;;;;;;21.48;28.76;96450.09;4954722;28;1384;-74
2023/11/24 11:45:48;;;;;;;;;;;;;;;21.32;28.84;96456.94;4954761;28;1547;-74
2023/11/24 11:48:14;;;;;;;;;;;;;;;21.32;28.81;96448.47;4954133;29;1342;-74
2023/11/24 11:50:56;;;;;;;;;;;;;;;21.14;29.00;96451.38;4954894;29;1363;-74
2023/11/24 11:53:25;;;;;;;;;;;;;;;20.74;29.57;96444.00;4968788;28;1394;-76
2023/11/24 11:55:53;;;;;;;;;;;;;;;21.09;29.46;96440.72;4958182;28;1643;-74
2023/11/24 11:58:19;;;;;;;;;;;;;;;21.15;29.44;96450.13;4960599;28;1411;-74
2023/11/24 12:00:46;;;;;;;;;;;;;;;21.27;29.07;96448.31;4945085;29;1345;-73
2023/11/24 12:03:12;;;;;;;;;;;;;;;21.07;29.29;96438.34;4963398;28;1513;-75
2023/11/24 12:05:38;;;;;;;;;;;;;;;21.08;29.60;96439.13;5021209;28;1396;-73
2023/11/24 12:08:05;;;;;;;;;;;;;;;20.65;29.65;96440.44;5021033;28;1989;-75
2023/11/24 12:10:31;;;;;;;;;;;;;;;21.11;29.11;96443.84;5021011;28;1533;-74
2023/11/24 12:12:58;;;;;;;;;;;;;;;21.04;28.86;96442.16;5016653;28;1564;-75
2023/11/24 12:15:23;;;;;;;;;;;;;;;21.21;28.74;96428.38;5016405;28;1635;-75
2023/11/24 12:17:52;;;;;;;;;;;;;;;20.71;29.63;96425.16;5000580;28;1434;-73
2023/11/24 12:20:17;;;;;;;;;;;;;;;21.23;29.04;96423.03;5016413;28;1365;-74
2023/11/24 12:22:43;;;;;;;;;;;;;;;21.36;28.90;96422.84;4983598;28;1410;-73
2023/11/24 12:25:12;;;;;;;;;;;;;;;21.22;29.33;96421.47;5016720;28;1417;-75
2023/11/24 12:27:44;;;;;;;;;;;;;;;21.50;28.40;96412.81;5016194;28;1980;-74
2023/11/24 12:30:11;;;;;;;;;;;;;;;21.28;28.95;96408.22;5016346;28;1285;-74
2023/11/24 12:32:42;;;;;;;;;;;;;;;21.33;28.73;96416.06;5016238;28;1584;-74
2023/11/24 12:35:08;;;;;;;;;;;;;;;21.10;28.80;96414.00;4983638;28;1506;-74
2023/11/24 12:37:34;;;;;;;;;;;;;;;21.07;29.33;96414.94;4999332;28;1326;-74
2023/11/24 12:40:03;;;;;;;;;;;;;;;21.24;29.00;96407.63;4999824;28;1816;-74
2023/11/24 12:42:29;;;;;;;;;;;;;;;21.17;28.91;96407.19;5015891;28;1516;-75
2023/11/24 12:44:55;;;;;;;;;;;;;;;21.20;29.14;96412.69;5020196;28;1509;-75
2023/11/24 12:47:24;;;;;;;;;;;;;;;21.22;28.96;96415.03;5038044;28;1976;-75
2023/11/24 12:49:58;;;;;;;;;;;;;;;21.06;28.87;96410.56;5019981;28;1595;-74
2023/11/24 12:52:24;;;;;;;;;;;;;;;21.06;29.09;96407.72;5003069;28;1488;-74